Airport Information

KONO - Ontario Municipal Airport

KONO 160826Z AUTO 26004KT 3SM BR FEW002 M06/M08 A2999 RMK AO2 T10611078


  • General Information

  • Coordinates: N 44°1'9"/ W 117°0'46"
  • Location: N/A
  • Surveyed Elevation: 2193 MSL

Operations

Flow Name Active Runways Conditions

Green background denotes normal operations.


Common Frequencies

Callsign Frequency Position Name

More at the Document Center


Charts